createdAt,value
2019-05-11T00:00:00.722Z,9.9
2019-05-11T00:01:08.009Z,9.8
2019-05-11T00:02:14.947Z,9.8
2019-05-11T00:03:22.245Z,9.8
2019-05-11T00:04:29.450Z,9.8
2019-05-11T00:05:36.654Z,9.8
2019-05-11T00:06:43.587Z,9.8
2019-05-11T00:07:50.808Z,9.8
2019-05-11T00:08:58.012Z,9.8
2019-05-11T00:10:05.206Z,9.8
2019-05-11T00:11:12.133Z,9.8
2019-05-11T00:12:19.334Z,9.8
2019-05-11T00:13:26.262Z,9.9
2019-05-11T00:14:33.463Z,9.8
2019-05-11T00:15:40.397Z,9.8
2019-05-11T00:16:47.597Z,9.9
2019-05-11T00:17:54.800Z,9.9
2019-05-11T00:19:02.008Z,9.9
2019-05-11T00:20:08.975Z,9.9
2019-05-11T00:21:16.221Z,9.8
2019-05-11T00:22:23.429Z,9.8
2019-05-11T00:23:30.642Z,9.8
2019-05-11T00:24:37.836Z,9.8
2019-05-11T00:25:45.037Z,9.8
2019-05-11T00:26:52.285Z,9.8
2019-05-11T00:27:59.499Z,9.8
2019-05-11T00:29:06.902Z,9.8
2019-05-11T00:30:14.110Z,9.9
2019-05-11T00:31:21.314Z,9.9
2019-05-11T00:32:28.525Z,9.9
2019-05-11T00:33:35.723Z,10
2019-05-11T00:34:42.924Z,10
2019-05-11T00:35:50.123Z,10
2019-05-11T00:36:57.060Z,10
2019-05-11T00:38:04.266Z,10.1
2019-05-11T00:39:11.474Z,10.1
2019-05-11T00:40:18.402Z,10.1
2019-05-11T00:41:25.607Z,10.1
2019-05-11T00:42:32.535Z,10.1
2019-05-11T00:43:39.750Z,10.1
2019-05-11T00:44:47.861Z,10.1
2019-05-11T00:45:54.796Z,10.1
2019-05-11T00:47:01.732Z,10.2
2019-05-11T00:48:08.930Z,10.2
2019-05-11T00:49:16.129Z,10.2
2019-05-11T00:50:40.005Z,10.2
2019-05-11T00:51:47.051Z,10.1
2019-05-11T00:52:54.250Z,10.2
2019-05-11T00:54:01.450Z,10.2
2019-05-11T00:55:08.408Z,10.2
2019-05-11T00:56:15.591Z,10.2
2019-05-11T00:57:22.793Z,10.2
2019-05-11T00:58:29.999Z,10.2
2019-05-11T00:59:37.199Z,10.2
2019-05-11T01:00:44.403Z,10.2
2019-05-11T01:01:51.608Z,10.2
2019-05-11T01:02:58.810Z,10.1
2019-05-11T01:04:05.763Z,10.1
2019-05-11T01:05:12.992Z,10.1
2019-05-11T01:06:20.039Z,10.1
2019-05-11T01:07:27.333Z,10.1
2019-05-11T01:08:34.537Z,10.1
2019-05-11T01:09:41.803Z,10.1
2019-05-11T01:10:49.044Z,10.1
2019-05-11T01:11:56.252Z,10.1
2019-05-11T01:13:03.456Z,10.1
2019-05-11T01:14:10.661Z,10.1
2019-05-11T01:15:17.863Z,10.1
2019-05-11T01:16:25.094Z,10.1
2019-05-11T01:17:32.029Z,10
2019-05-11T01:18:39.233Z,10.1
2019-05-11T01:19:46.437Z,10
2019-05-11T01:20:53.641Z,10
2019-05-11T01:22:00.846Z,10
2019-05-11T01:23:07.775Z,10.1
2019-05-11T01:24:14.977Z,10.1
2019-05-11T01:25:22.177Z,10.1
2019-05-11T01:26:29.395Z,10.1
2019-05-11T01:27:36.589Z,10.1
2019-05-11T01:28:43.538Z,10.1
2019-05-11T01:29:50.747Z,10
2019-05-11T01:30:57.964Z,10
2019-05-11T01:32:05.167Z,10
2019-05-11T01:33:12.365Z,10
2019-05-11T01:34:19.569Z,10
2019-05-11T01:35:26.494Z,10
2019-05-11T01:36:33.160Z,10
2019-05-11T01:37:40.356Z,10
2019-05-11T01:38:47.557Z,10
2019-05-11T01:39:54.218Z,10
2019-05-11T01:41:01.422Z,10
2019-05-11T01:42:08.626Z,10
2019-05-11T01:43:15.831Z,10
2019-05-11T01:44:23.030Z,10
2019-05-11T01:45:30.255Z,10
2019-05-11T01:46:37.461Z,10
2019-05-11T01:47:44.659Z,10
2019-05-11T01:48:51.590Z,10
2019-05-11T01:49:58.798Z,10
2019-05-11T01:51:06.009Z,10
2019-05-11T01:52:12.950Z,9.9
2019-05-11T01:53:20.155Z,9.9
2019-05-11T01:54:27.079Z,9.9
2019-05-11T01:55:34.295Z,9.9
2019-05-11T01:56:41.497Z,10
2019-05-11T01:57:48.694Z,10
2019-05-11T01:58:55.622Z,10
2019-05-11T02:00:02.559Z,10
2019-05-11T02:01:09.492Z,10
2019-05-11T02:02:16.694Z,10
2019-05-11T02:03:23.893Z,10
2019-05-11T02:04:30.819Z,10
2019-05-11T02:05:37.753Z,10
2019-05-11T02:06:44.953Z,10
2019-05-11T02:07:52.160Z,10
2019-05-11T02:08:59.359Z,10
2019-05-11T02:10:06.565Z,10
2019-05-11T02:11:16.611Z,10
2019-05-11T02:12:23.818Z,10.1
2019-05-11T02:13:30.719Z,10.1
2019-05-11T02:14:37.704Z,10.1
2019-05-11T02:15:44.897Z,10.1
2019-05-11T02:16:52.101Z,10.1
2019-05-11T02:17:59.312Z,10
2019-05-11T02:19:06.274Z,10
2019-05-11T02:20:13.483Z,10
2019-05-11T02:21:20.684Z,10
2019-05-11T02:22:27.897Z,10.1
2019-05-11T02:23:35.097Z,10.1
2019-05-11T02:24:42.303Z,10
2019-05-11T02:25:49.230Z,10
2019-05-11T02:26:56.434Z,10
2019-05-11T02:28:03.368Z,10
2019-05-11T02:29:10.606Z,9.9
2019-05-11T02:30:17.326Z,9.9
2019-05-11T02:31:24.525Z,9.8
2019-05-11T02:32:31.736Z,9.8
2019-05-11T02:33:38.941Z,9.8
2019-05-11T02:34:46.139Z,9.8
2019-05-11T02:35:53.345Z,9.8
2019-05-11T02:37:00.546Z,9.9
2019-05-11T02:38:07.488Z,9.9
2019-05-11T02:39:14.417Z,9.9
2019-05-11T02:40:21.648Z,10
2019-05-11T02:41:37.635Z,10
2019-05-11T02:42:45.321Z,10
2019-05-11T02:43:52.521Z,10
2019-05-11T02:44:59.727Z,10
2019-05-11T02:46:06.936Z,10
2019-05-11T02:47:14.140Z,10
2019-05-11T02:48:21.350Z,10
2019-05-11T02:49:29.018Z,10
2019-05-11T02:50:36.220Z,10
2019-05-11T02:51:43.426Z,10
2019-05-11T02:52:50.705Z,10
2019-05-11T02:53:57.923Z,10.1
2019-05-11T02:55:05.118Z,10.1
2019-05-11T02:56:12.320Z,10.1
2019-05-11T02:57:19.536Z,10.1
2019-05-11T02:58:26.757Z,10.1
2019-05-11T02:59:33.946Z,10.1
2019-05-11T03:00:41.256Z,10
2019-05-11T03:01:48.478Z,10
2019-05-11T03:02:55.680Z,10
2019-05-11T03:04:02.889Z,10
2019-05-11T03:05:10.089Z,10
2019-05-11T03:06:17.295Z,10
2019-05-11T03:07:24.524Z,10
2019-05-11T03:08:31.720Z,10
2019-05-11T03:09:38.926Z,10
2019-05-11T03:10:46.141Z,10.1
2019-05-11T03:11:56.779Z,10.1
2019-05-11T03:13:03.974Z,10.1
2019-05-11T03:14:11.203Z,10
2019-05-11T03:15:18.126Z,10
2019-05-11T03:16:25.327Z,10
2019-05-11T03:17:32.535Z,10
2019-05-11T03:18:39.476Z,10
2019-05-11T03:19:46.676Z,10
2019-05-11T03:20:53.343Z,10
2019-05-11T03:22:00.551Z,10
2019-05-11T03:23:07.747Z,9.9
2019-05-11T03:24:14.682Z,9.9
2019-05-11T03:25:21.625Z,9.9
2019-05-11T03:26:28.835Z,9.9
2019-05-11T03:27:35.765Z,9.9
2019-05-11T03:28:42.702Z,9.8
2019-05-11T03:29:49.900Z,9.8
2019-05-11T03:30:57.316Z,9.8
2019-05-11T03:32:04.269Z,9.8
2019-05-11T03:33:11.621Z,9.7
2019-05-11T03:34:18.908Z,9.7
2019-05-11T03:35:26.134Z,9.8
2019-05-11T03:36:33.354Z,9.7
2019-05-11T03:37:40.015Z,9.7
2019-05-11T03:38:47.215Z,9.8
2019-05-11T03:39:54.426Z,9.8
2019-05-11T03:41:01.629Z,9.8
2019-05-11T03:42:15.539Z,9.8
2019-05-11T03:43:22.797Z,9.8
2019-05-11T03:44:30.000Z,9.8
2019-05-11T03:45:37.200Z,9.8
2019-05-11T03:46:44.409Z,9.8
2019-05-11T03:47:51.613Z,9.8
2019-05-11T03:48:58.819Z,9.8
2019-05-11T03:50:06.029Z,9.7
2019-05-11T03:51:13.235Z,9.7
2019-05-11T03:52:20.436Z,9.7
2019-05-11T03:53:27.654Z,9.7
2019-05-11T03:54:34.849Z,9.7
2019-05-11T03:55:42.055Z,9.8
2019-05-11T03:56:48.715Z,9.7
2019-05-11T03:57:55.645Z,9.7
2019-05-11T03:59:02.857Z,9.7
2019-05-11T04:00:10.064Z,9.8
2019-05-11T04:01:17.007Z,9.8
2019-05-11T04:02:24.207Z,9.8
2019-05-11T04:03:31.417Z,9.8
2019-05-11T04:04:38.624Z,9.8
2019-05-11T04:05:46.047Z,9.8
2019-05-11T04:06:53.306Z,9.8
2019-05-11T04:08:00.235Z,9.7
2019-05-11T04:09:07.593Z,9.7
2019-05-11T04:10:14.810Z,9.7
2019-05-11T04:11:21.740Z,9.7
2019-05-11T04:12:35.947Z,9.7
2019-05-11T04:13:43.189Z,9.6
2019-05-11T04:14:50.201Z,9.6
2019-05-11T04:15:57.428Z,9.6
2019-05-11T04:17:04.634Z,9.6
2019-05-11T04:18:11.930Z,9.6
2019-05-11T04:19:19.118Z,9.6
2019-05-11T04:20:26.323Z,9.6
2019-05-11T04:21:33.517Z,9.6
2019-05-11T04:22:40.728Z,9.5
2019-05-11T04:23:47.930Z,9.6
2019-05-11T04:24:55.135Z,9.6
2019-05-11T04:26:02.337Z,9.6
2019-05-11T04:27:09.533Z,9.6
2019-05-11T04:28:16.740Z,9.6
2019-05-11T04:29:23.678Z,9.6
2019-05-11T04:30:30.895Z,9.6
2019-05-11T04:31:38.119Z,9.6
2019-05-11T04:32:45.328Z,9.6
2019-05-11T04:33:52.527Z,9.6
2019-05-11T04:34:59.728Z,9.6
2019-05-11T04:36:06.929Z,9.6
2019-05-11T04:37:13.859Z,9.6
2019-05-11T04:38:21.125Z,9.6
2019-05-11T04:39:28.327Z,9.6
2019-05-11T04:40:35.627Z,9.6
2019-05-11T04:41:42.564Z,9.7
2019-05-11T04:42:56.341Z,9.7
2019-05-11T04:44:03.704Z,9.7
2019-05-11T04:45:10.917Z,9.7
2019-05-11T04:46:17.833Z,9.7
2019-05-11T04:47:25.037Z,9.7
2019-05-11T04:48:32.236Z,9.7
2019-05-11T04:49:39.173Z,9.7
2019-05-11T04:50:46.372Z,9.7
2019-05-11T04:51:53.574Z,9.7
2019-05-11T04:53:00.782Z,9.7
2019-05-11T04:54:07.445Z,9.7
2019-05-11T04:55:14.727Z,9.7
2019-05-11T04:56:21.657Z,9.7
2019-05-11T04:57:28.867Z,9.6
2019-05-11T04:58:36.059Z,9.6
2019-05-11T04:59:43.264Z,9.5
2019-05-11T05:00:50.466Z,9.5
2019-05-11T05:01:57.399Z,9.5
2019-05-11T05:03:04.330Z,9.5
2019-05-11T05:04:14.900Z,9.5
2019-05-11T05:05:22.135Z,9.4
2019-05-11T05:06:29.337Z,9.4
2019-05-11T05:07:36.532Z,9.4
2019-05-11T05:09:03.543Z,9.5
2019-05-11T05:10:19.739Z,9.4
2019-05-11T05:11:36.491Z,9.5
2019-05-11T05:12:53.284Z,9.5
2019-05-11T05:14:17.323Z,9.5
2019-05-11T05:15:24.525Z,9.5
2019-05-11T05:16:32.123Z,9.5
2019-05-11T05:17:39.328Z,9.5
2019-05-11T05:18:46.541Z,9.5
2019-05-11T05:19:53.745Z,9.5
2019-05-11T05:21:00.948Z,9.5
2019-05-11T05:22:07.876Z,9.5
2019-05-11T05:23:15.075Z,9.5
2019-05-11T05:24:22.364Z,9.5
2019-05-11T05:25:29.564Z,9.5
2019-05-11T05:26:36.815Z,9.5
2019-05-11T05:27:43.796Z,9.6
2019-05-11T05:28:51.609Z,9.6
2019-05-11T05:29:58.827Z,9.6
2019-05-11T05:31:06.062Z,9.6
2019-05-11T05:32:12.994Z,9.6
2019-05-11T05:33:20.196Z,9.6
2019-05-11T05:34:27.404Z,9.6
2019-05-11T05:35:34.604Z,9.6
2019-05-11T05:36:41.814Z,9.6
2019-05-11T05:37:49.013Z,9.7
2019-05-11T05:38:56.214Z,9.7
2019-05-11T05:40:03.148Z,9.7
2019-05-11T05:41:10.365Z,9.7
2019-05-11T05:42:17.557Z,9.6
2019-05-11T05:43:28.886Z,9.6
2019-05-11T05:44:35.810Z,9.6
2019-05-11T05:45:43.010Z,9.6
2019-05-11T05:46:50.228Z,9.6
2019-05-11T05:47:57.435Z,9.6
2019-05-11T05:49:04.359Z,9.6
2019-05-11T05:50:11.566Z,9.6
2019-05-11T05:51:18.769Z,9.6
2019-05-11T05:52:25.974Z,9.6
2019-05-11T05:53:33.178Z,9.6
2019-05-11T05:54:40.111Z,9.7
2019-05-11T05:55:47.320Z,9.6
2019-05-11T05:56:54.250Z,9.6
2019-05-11T05:58:01.454Z,9.7
2019-05-11T05:59:08.104Z,9.7
2019-05-11T06:00:15.036Z,9.7
2019-05-11T06:01:22.238Z,9.7
2019-05-11T06:02:29.168Z,9.8
2019-05-11T06:03:36.376Z,9.7
2019-05-11T06:04:43.030Z,9.7
2019-05-11T06:05:50.241Z,9.8
2019-05-11T06:06:57.177Z,9.8
2019-05-11T06:08:04.402Z,9.8
2019-05-11T06:09:11.592Z,9.8
2019-05-11T06:10:18.799Z,9.8
2019-05-11T06:11:26.007Z,9.8
2019-05-11T06:12:33.224Z,9.8
2019-05-11T06:13:46.071Z,9.8
2019-05-11T06:14:53.293Z,9.8
2019-05-11T06:16:00.498Z,9.8
2019-05-11T06:17:07.702Z,9.8
2019-05-11T06:18:14.635Z,9.8
2019-05-11T06:19:21.839Z,9.8
2019-05-11T06:20:28.774Z,9.8
2019-05-11T06:21:35.974Z,9.8
2019-05-11T06:22:43.175Z,9.9
2019-05-11T06:23:50.116Z,9.9
2019-05-11T06:24:57.316Z,9.9
2019-05-11T06:26:03.985Z,9.9
2019-05-11T06:27:11.272Z,9.9
2019-05-11T06:28:18.489Z,9.9
2019-05-11T06:29:25.687Z,9.9
2019-05-11T06:30:32.909Z,9.9
2019-05-11T06:31:40.098Z,10
2019-05-11T06:32:47.311Z,10
2019-05-11T06:33:54.523Z,10
2019-05-11T06:35:01.726Z,10
2019-05-11T06:36:09.128Z,10
2019-05-11T06:37:16.048Z,10
2019-05-11T06:38:23.232Z,10.1
2019-05-11T06:39:30.455Z,10.1
2019-05-11T06:40:37.659Z,10.2
2019-05-11T06:41:44.871Z,10.1
2019-05-11T06:42:52.075Z,10.1
2019-05-11T06:44:02.707Z,10
2019-05-11T06:45:09.900Z,10
2019-05-11T06:46:17.099Z,9.9
2019-05-11T06:47:24.300Z,9.9
2019-05-11T06:48:31.502Z,9.9
2019-05-11T06:49:38.704Z,10
2019-05-11T06:50:45.642Z,10
2019-05-11T06:51:52.848Z,10
2019-05-11T06:53:00.046Z,10
2019-05-11T06:54:07.250Z,10
2019-05-11T06:55:14.224Z,10.1
2019-05-11T06:56:21.170Z,10.1
2019-05-11T06:57:28.379Z,10.1
2019-05-11T06:58:35.320Z,10.1
2019-05-11T06:59:42.525Z,10.1
2019-05-11T07:00:49.756Z,10.1
2019-05-11T07:01:56.948Z,10.1
2019-05-11T07:03:03.886Z,10.2
2019-05-11T07:04:11.093Z,10.3
2019-05-11T07:05:18.304Z,10.3
2019-05-11T07:06:30.700Z,10.4
2019-05-11T07:07:48.094Z,10.4
2019-05-11T07:08:55.344Z,10.4
2019-05-11T07:10:02.615Z,10.4
2019-05-11T07:11:09.817Z,10.5
2019-05-11T07:12:17.344Z,10.5
2019-05-11T07:13:24.898Z,10.5
2019-05-11T07:14:32.099Z,10.5
2019-05-11T07:15:39.305Z,10.6
2019-05-11T07:16:46.550Z,10.6
2019-05-11T07:17:53.753Z,10.6
2019-05-11T07:19:00.963Z,10.6
2019-05-11T07:20:08.165Z,10.5
2019-05-11T07:21:15.367Z,10.5
2019-05-11T07:22:22.566Z,10.5
2019-05-11T07:23:29.771Z,10.4
2019-05-11T07:24:36.972Z,10.4
2019-05-11T07:25:44.184Z,10.5
2019-05-11T07:26:51.387Z,10.5
2019-05-11T07:27:58.593Z,10.5
2019-05-11T07:29:05.525Z,10.6
2019-05-11T07:30:12.732Z,10.6
2019-05-11T07:31:20.135Z,10.6
2019-05-11T07:32:29.793Z,10.6
2019-05-11T07:33:38.505Z,10.6
2019-05-11T07:34:45.429Z,10.5
2019-05-11T07:35:54.917Z,10.5
2019-05-11T07:37:04.458Z,10.5
2019-05-11T07:38:11.660Z,10.6
2019-05-11T07:39:19.228Z,10.6
2019-05-11T07:40:28.396Z,10.7
2019-05-11T07:41:35.606Z,10.7
2019-05-11T07:42:45.095Z,10.7
2019-05-11T07:43:54.748Z,10.7
2019-05-11T07:45:01.953Z,10.7
2019-05-11T07:46:09.155Z,10.7
2019-05-11T07:47:18.395Z,10.7
2019-05-11T07:48:28.320Z,10.7
2019-05-11T07:49:38.017Z,10.8
2019-05-11T07:50:47.683Z,10.7
2019-05-11T07:51:54.814Z,10.8
2019-05-11T07:53:02.021Z,10.8
2019-05-11T07:54:09.225Z,10.8
2019-05-11T07:55:18.713Z,10.8
2019-05-11T07:56:28.221Z,10.8
2019-05-11T07:57:35.642Z,10.8
2019-05-11T07:58:47.760Z,10.8
2019-05-11T07:59:55.241Z,10.8
2019-05-11T08:01:04.568Z,10.9
2019-05-11T08:02:11.771Z,10.9
2019-05-11T08:03:18.985Z,11
2019-05-11T08:04:28.486Z,11.1
2019-05-11T08:05:38.292Z,11.1
2019-05-11T08:06:47.676Z,11.2
2019-05-11T08:07:55.029Z,11.2
2019-05-11T08:09:02.235Z,11.3
2019-05-11T08:10:09.442Z,11.2
2019-05-11T08:11:18.872Z,11.2
2019-05-11T08:12:28.165Z,11.2
2019-05-11T08:13:35.375Z,11.2
2019-05-11T08:15:05.611Z,11.2
2019-05-11T08:16:20.088Z,11.2
2019-05-11T08:17:29.176Z,11.3
2019-05-11T08:18:39.126Z,11.3
2019-05-11T08:19:47.912Z,11.4
2019-05-11T08:20:55.152Z,11.5
2019-05-11T08:22:04.950Z,11.6
2019-05-11T08:23:12.156Z,11.8
2019-05-11T08:24:19.366Z,12
2019-05-11T08:25:28.400Z,12.1
2019-05-11T08:26:35.564Z,12.2
2019-05-11T08:27:45.253Z,12.3
2019-05-11T08:28:57.592Z,12.4
2019-05-11T08:30:04.767Z,12.4
2019-05-11T08:31:11.979Z,12.3
2019-05-11T08:32:19.186Z,12.4
2019-05-11T08:33:28.824Z,12.3
2019-05-11T08:34:36.052Z,12.3
2019-05-11T08:35:42.989Z,12.5
2019-05-11T08:36:49.926Z,12.6
2019-05-11T08:37:58.599Z,12.8
2019-05-11T08:39:08.198Z,12.8
2019-05-11T08:40:15.131Z,12.9
2019-05-11T08:41:24.975Z,12.9
2019-05-11T08:42:34.703Z,13
2019-05-11T08:43:44.538Z,13
2019-05-11T08:44:51.475Z,12.9
2019-05-11T08:45:58.682Z,12.8
2019-05-11T08:47:08.267Z,12.8
2019-05-11T08:48:15.666Z,12.8
2019-05-11T08:49:25.378Z,12.7
2019-05-11T22:00:09.359Z,7
2019-05-11T22:01:20.780Z,7
2019-05-11T22:02:29.208Z,7
2019-05-11T22:03:38.151Z,7
2019-05-11T22:04:47.836Z,7
2019-05-11T22:05:54.898Z,7
2019-05-11T22:07:04.575Z,7
2019-05-11T22:08:13.927Z,6.9
2019-05-11T22:09:21.127Z,6.9
2019-05-11T22:10:28.868Z,6.9
2019-05-11T22:11:38.579Z,7
2019-05-11T22:12:45.787Z,6.9
2019-05-11T22:13:58.360Z,7
2019-05-11T22:15:05.290Z,6.9
2019-05-11T22:16:15.353Z,7
2019-05-11T22:17:22.551Z,7
2019-05-11T22:18:31.950Z,6.9
2019-05-11T22:19:41.019Z,6.9
2019-05-11T22:20:49.095Z,6.9
2019-05-11T22:21:58.710Z,6.9
2019-05-11T22:23:08.230Z,6.9
2019-05-11T22:24:17.752Z,6.8
2019-05-11T22:25:25.102Z,6.9
2019-05-11T22:26:32.311Z,6.8
2019-05-11T22:27:39.732Z,6.8
2019-05-11T22:28:48.707Z,6.9
2019-05-11T22:29:55.661Z,6.8
2019-05-11T22:31:05.172Z,6.8
2019-05-11T22:32:14.302Z,6.8
2019-05-11T22:33:21.499Z,6.8
2019-05-11T22:34:28.723Z,6.8
2019-05-11T22:35:37.579Z,6.8
2019-05-11T22:36:44.863Z,6.8
2019-05-11T22:37:54.664Z,6.8
2019-05-11T22:39:04.081Z,6.8
2019-05-11T22:40:11.300Z,6.8
2019-05-11T22:41:18.639Z,6.8
2019-05-11T22:42:28.459Z,6.8
2019-05-11T22:43:37.404Z,6.8
2019-05-11T22:45:55.122Z,6.8
2019-05-11T22:47:04.809Z,6.8
2019-05-11T22:48:12.007Z,6.8
2019-05-11T22:49:19.205Z,6.8
2019-05-11T22:50:28.731Z,6.8
2019-05-11T22:51:35.935Z,6.8
2019-05-11T22:52:42.587Z,6.8
2019-05-11T22:53:51.094Z,6.8
2019-05-11T22:54:59.565Z,6.7
2019-05-11T22:56:06.497Z,6.7
2019-05-11T22:57:13.695Z,6.7
2019-05-11T22:58:20.893Z,6.7
2019-05-11T22:59:28.661Z,6.7
2019-05-11T23:00:38.005Z,6.7
2019-05-11T23:01:45.274Z,6.6
2019-05-11T23:02:54.704Z,6.6
2019-05-11T23:04:01.910Z,6.6
2019-05-11T23:05:09.449Z,6.6
2019-05-11T23:06:18.620Z,6.6
2019-05-11T23:07:25.822Z,6.7
2019-05-11T23:08:35.476Z,6.6
2019-05-11T23:09:42.678Z,6.6
2019-05-11T23:10:49.082Z,6.6
2019-05-11T23:12:01.325Z,6.6
2019-05-11T23:13:11.862Z,6.7
2019-05-11T23:14:20.468Z,6.7
2019-05-11T23:15:27.671Z,6.7
2019-05-11T23:16:34.877Z,6.7
2019-05-11T23:17:42.080Z,6.7
2019-05-11T23:18:49.300Z,6.7
2019-05-11T23:19:58.436Z,6.7
2019-05-11T23:21:05.370Z,6.7
2019-05-11T23:22:14.964Z,6.7
2019-05-11T23:23:24.564Z,6.7
2019-05-11T23:24:31.491Z,6.7
2019-05-11T23:25:38.691Z,6.6
2019-05-11T23:26:48.005Z,6.6
2019-05-11T23:27:55.325Z,6.6
2019-05-11T23:29:04.971Z,6.7
2019-05-11T23:30:14.367Z,6.7
2019-05-11T23:31:21.310Z,6.6
2019-05-11T23:32:28.510Z,6.6
2019-05-11T23:33:38.268Z,6.7
2019-05-11T23:34:45.297Z,6.6
2019-05-11T23:35:54.866Z,6.6
2019-05-11T23:37:02.069Z,6.6
2019-05-11T23:38:09.267Z,6.7
2019-05-11T23:39:18.287Z,6.7
2019-05-11T23:40:25.485Z,6.7
2019-05-11T23:41:34.650Z,6.7
2019-05-11T23:42:44.437Z,6.7
2019-05-11T23:43:51.364Z,6.7
2019-05-11T23:44:59.184Z,6.7
2019-05-11T23:46:08.757Z,6.7
2019-05-11T23:47:19.797Z,6.7
2019-05-11T23:48:28.570Z,6.7
2019-05-11T23:49:35.773Z,6.7
2019-05-11T23:50:42.975Z,6.7
2019-05-11T23:51:49.903Z,6.7
2019-05-11T23:53:09.735Z,6.7
2019-05-11T23:54:19.069Z,6.7
2019-05-11T23:55:25.998Z,6.7
2019-05-11T23:56:35.610Z,6.7
2019-05-11T23:57:45.040Z,6.7
2019-05-11T23:58:54.794Z,6.7
